Time;durP1;ratioP1;P1;durP2;ratioP2;P2;SDS_P1;SDS_P2;PMS_P1;PMS_P2;Temp;Humidity;BMP_temperature;BMP_pressure;BME280_temperature;BME280_humidity;BME280_pressure;Samples;Min_cycle;Max_cycle;Signal;HPM_P1;HPM_P2
2022/05/19 00:03:23;;;;;;;;;;;19.80;54.20;;;;;;5123357;28;19982;-47
2022/05/19 00:05:49;;;;;;;;;;;19.80;54.40;;;;;;5122410;28;20360;-47
2022/05/19 00:08:15;;;;;;;;;;;19.80;54.30;;;;;;5125949;28;19923;-49
2022/05/19 00:10:41;;;;;;;;;;;19.80;54.30;;;;;;5120864;28;20456;-48
2022/05/19 00:13:07;;;;;;;;;;;19.90;53.90;;;;;;5102363;28;19931;-47
2022/05/19 00:15:33;;;;;;;;;;;20.00;53.70;;;;;;5108080;28;20367;-49
2022/05/19 00:17:58;;;;;;;;;;;20.00;53.60;;;;;;5122194;28;19931;-47
2022/05/19 00:20:24;;;;;;;;;;;20.10;55.00;;;;;;5124046;28;20063;-53
2022/05/19 00:22:50;;;;;;;;;;;20.90;57.20;;;;;;5105932;28;19924;-51
2022/05/19 00:25:16;;;;;;;;;;;21.60;56.90;;;;;;5122008;28;19971;-53
2022/05/19 00:27:41;;;;;;;;;;;21.10;54.90;;;;;;5106419;28;20406;-49
2022/05/19 00:30:07;;;;;;;;;;;20.40;54.80;;;;;;5102351;28;19928;-52
2022/05/19 00:32:34;;;;;;;;;;;20.10;54.30;;;;;;5121807;28;19927;-48
2022/05/19 00:34:59;;;;;;;;;;;19.90;54.10;;;;;;5107497;28;20006;-48
2022/05/19 00:37:25;;;;;;;;;;;19.90;53.90;;;;;;5122329;28;20058;-49
2022/05/19 00:39:51;;;;;;;;;;;19.60;54.30;;;;;;5122672;28;19926;-53
2022/05/19 00:45:02;;;;;;;;;;;20.20;55.50;;;;;;5121382;28;20026;-46
2022/05/19 00:47:29;;;;;;;;;;;21.20;57.20;;;;;;5124456;27;19971;-57
2022/05/19 00:49:55;;;;;;;;;;;21.60;55.60;;;;;;5126960;28;20002;-49
2022/05/19 00:52:25;;;;;;;;;;;20.60;55.20;;;;;;5106757;28;20362;-51
2022/05/19 00:54:51;;;;;;;;;;;19.90;54.80;;;;;;5129661;28;20554;-48
2022/05/19 00:57:19;;;;;;;;;;;19.80;54.50;;;;;;5107108;28;20002;-50
2022/05/19 00:59:52;;;;;;;;;;;19.70;54.20;;;;;;5107427;28;19935;-47
2022/05/19 01:02:33;;;;;;;;;;;19.60;54.30;;;;;;5129826;28;19985;-46
2022/05/19 01:05:01;;;;;;;;;;;19.70;54.60;;;;;;5123799;28;19923;-48
2022/05/19 01:07:29;;;;;;;;;;;20.80;57.20;;;;;;5106482;28;19924;-49
2022/05/19 01:09:55;;;;;;;;;;;21.50;57.00;;;;;;5128731;28;19929;-50
2022/05/19 01:12:21;;;;;;;;;;;21.10;55.00;;;;;;5105044;28;20367;-51
2022/05/19 01:14:47;;;;;;;;;;;20.20;54.30;;;;;;5105316;28;19923;-52
2022/05/19 01:17:12;;;;;;;;;;;19.90;54.50;;;;;;5110680;28;19972;-50
2022/05/19 01:19:40;;;;;;;;;;;19.90;54.10;;;;;;5105074;28;19930;-53
2022/05/19 01:22:21;;;;;;;;;;;19.80;53.70;;;;;;5092402;28;19924;-52
2022/05/19 01:25:11;;;;;;;;;;;19.50;55.20;;;;;;5126557;28;19927;-47
2022/05/19 01:27:36;;;;;;;;;;;20.80;57.60;;;;;;5076223;28;20039;-51
2022/05/19 01:30:05;;;;;;;;;;;21.60;56.90;;;;;;5126752;28;19923;-56
2022/05/19 01:32:31;;;;;;;;;;;20.80;54.90;;;;;;5126486;28;19930;-47
2022/05/19 01:34:57;;;;;;;;;;;20.20;54.70;;;;;;5123009;28;19967;-51
2022/05/19 01:37:23;;;;;;;;;;;19.90;54.30;;;;;;5110218;28;20347;-48
2022/05/19 01:39:50;;;;;;;;;;;19.80;54.00;;;;;;5122904;28;19953;-50
2022/05/19 01:42:16;;;;;;;;;;;19.60;54.40;;;;;;5087363;28;20275;-49
2022/05/19 01:44:57;;;;;;;;;;;20.40;57.90;;;;;;5128091;28;19931;-47
2022/05/19 01:47:40;;;;;;;;;;;21.30;57.90;;;;;;5104339;28;20010;-55
2022/05/19 01:50:16;;;;;;;;;;;21.30;55.60;;;;;;5122786;28;19928;-48
2022/05/19 01:52:47;;;;;;;;;;;20.30;55.30;;;;;;5109811;28;19934;-51
2022/05/19 01:55:19;;;;;;;;;;;19.80;54.70;;;;;;5104410;28;20397;-51
2022/05/19 01:57:45;;;;;;;;;;;19.70;54.50;;;;;;5103953;28;20018;-48
2022/05/19 02:00:12;;;;;;;;;;;19.70;54.50;;;;;;5124693;28;19923;-50
2022/05/19 02:02:40;;;;;;;;;;;19.80;54.20;;;;;;5103657;28;20316;-47
2022/05/19 02:05:14;;;;;;;;;;;20.00;56.00;;;;;;5123424;28;20293;-46
2022/05/19 02:07:41;;;;;;;;;;;20.90;58.30;;;;;;5128099;28;19930;-52
2022/05/19 02:10:09;;;;;;;;;;;21.60;57.20;;;;;;5122402;28;20289;-49
2022/05/19 02:12:37;;;;;;;;;;;20.60;55.40;;;;;;5126770;28;20318;-56
2022/05/19 02:15:13;;;;;;;;;;;20.10;54.70;;;;;;5089378;28;19930;-47
2022/05/19 02:17:39;;;;;;;;;;;19.90;54.40;;;;;;5120644;28;19989;-52
2022/05/19 02:20:07;;;;;;;;;;;19.70;54.40;;;;;;5106460;28;19924;-48
2022/05/19 02:22:34;;;;;;;;;;;19.80;54.00;;;;;;5121860;28;20026;-49
2022/05/19 02:25:01;;;;;;;;;;;19.80;53.60;;;;;;5123020;28;20060;-49
2022/05/19 02:27:34;;;;;;;;;;;20.30;56.90;;;;;;5127910;28;19934;-47
2022/05/19 02:30:01;;;;;;;;;;;21.20;57.80;;;;;;5101816;28;19928;-52
2022/05/19 02:32:27;;;;;;;;;;;21.30;56.00;;;;;;5104211;28;20033;-49
2022/05/19 02:34:53;;;;;;;;;;;20.20;55.40;;;;;;5127134;28;20426;-51
2022/05/19 02:37:19;;;;;;;;;;;19.80;54.50;;;;;;5119955;28;19930;-48
2022/05/19 02:39:45;;;;;;;;;;;19.80;53.90;;;;;;5125082;28;19924;-51
2022/05/19 02:42:11;;;;;;;;;;;20.40;57.10;;;;;;5125583;28;19927;-50
2022/05/19 02:44:36;;;;;;;;;;;21.30;57.10;;;;;;5102119;28;20390;-51
2022/05/19 02:47:02;;;;;;;;;;;21.30;54.90;;;;;;5127306;28;20256;-47
2022/05/19 02:49:28;;;;;;;;;;;20.30;54.30;;;;;;5121740;28;19931;-48
2022/05/19 02:51:54;;;;;;;;;;;19.90;54.00;;;;;;5121949;28;19927;-49
2022/05/19 02:54:21;;;;;;;;;;;19.80;53.40;;;;;;5125544;28;19998;-49
2022/05/19 02:56:47;;;;;;;;;;;19.80;53.10;;;;;;5120751;28;20383;-47
2022/05/19 02:59:13;;;;;;;;;;;20.60;56.70;;;;;;5102943;28;20404;-56
2022/05/19 03:01:39;;;;;;;;;;;21.30;56.50;;;;;;5127078;28;19927;-55
2022/05/19 03:04:05;;;;;;;;;;;21.00;54.50;;;;;;5121799;28;19953;-54
2022/05/19 03:06:30;;;;;;;;;;;20.30;53.70;;;;;;5126740;28;19924;-47
2022/05/19 03:08:56;;;;;;;;;;;19.90;53.60;;;;;;5103040;27;19923;-51
2022/05/19 03:11:22;;;;;;;;;;;19.70;53.20;;;;;;5121053;28;19935;-46
2022/05/19 03:13:48;;;;;;;;;;;19.90;54.30;;;;;;5105624;28;20375;-49
2022/05/19 03:16:13;;;;;;;;;;;20.90;56.30;;;;;;5120692;28;20052;-51
2022/05/19 03:18:39;;;;;;;;;;;21.50;55.20;;;;;;5121439;28;19927;-49
2022/05/19 03:21:05;;;;;;;;;;;20.80;53.70;;;;;;5108320;28;19924;-48
2022/05/19 03:23:31;;;;;;;;;;;20.10;53.60;;;;;;5121158;28;20362;-48
2022/05/19 03:25:57;;;;;;;;;;;19.90;53.00;;;;;;5126432;28;19931;-46
2022/05/19 03:28:22;;;;;;;;;;;19.70;52.70;;;;;;5120993;28;19976;-47
2022/05/19 03:30:48;;;;;;;;;;;20.30;55.40;;;;;;5119752;28;19972;-48
2022/05/19 03:33:14;;;;;;;;;;;21.20;55.40;;;;;;5124560;28;19923;-51
2022/05/19 03:35:40;;;;;;;;;;;21.30;53.30;;;;;;5102028;28;19978;-53
2022/05/19 03:38:06;;;;;;;;;;;20.30;53.20;;;;;;5121046;28;20028;-50
2022/05/19 03:40:32;;;;;;;;;;;19.90;53.00;;;;;;5126639;28;20306;-48
2022/05/19 03:42:58;;;;;;;;;;;19.70;52.50;;;;;;5102683;28;19923;-49
2022/05/19 03:45:24;;;;;;;;;;;20.00;54.10;;;;;;5126271;28;19923;-47
2022/05/19 03:47:50;;;;;;;;;;;21.00;55.30;;;;;;5120927;28;19946;-50
2022/05/19 03:50:16;;;;;;;;;;;21.70;53.60;;;;;;5118511;28;20002;-48
2022/05/19 03:52:42;;;;;;;;;;;20.50;53.10;;;;;;5125108;28;19978;-47
2022/05/19 03:55:08;;;;;;;;;;;20.10;52.80;;;;;;5102166;28;20391;-46
2022/05/19 03:57:34;;;;;;;;;;;19.90;52.30;;;;;;5101825;28;20199;-47
2022/05/19 04:00:00;;;;;;;;;;;19.70;52.00;;;;;;5126295;28;20019;-47
2022/05/19 04:02:25;;;;;;;;;;;20.40;54.60;;;;;;5120688;28;19949;-47
2022/05/19 04:04:51;;;;;;;;;;;21.30;54.20;;;;;;5105772;28;19923;-55
2022/05/19 04:07:17;;;;;;;;;;;21.40;52.50;;;;;;5102558;28;19924;-50
2022/05/19 04:09:43;;;;;;;;;;;20.20;53.10;;;;;;5118561;28;19934;-48
2022/05/19 04:12:09;;;;;;;;;;;20.00;52.50;;;;;;5125345;28;19949;-46
2022/05/19 04:14:35;;;;;;;;;;;19.80;52.20;;;;;;5120264;28;19923;-49
2022/05/19 04:17:00;;;;;;;;;;;19.80;52.10;;;;;;5120659;28;19987;-46
2022/05/19 04:19:26;;;;;;;;;;;20.50;55.10;;;;;;5126115;28;20362;-50
2022/05/19 04:21:52;;;;;;;;;;;21.30;54.30;;;;;;5121319;27;19931;-50
2022/05/19 04:24:18;;;;;;;;;;;21.20;52.60;;;;;;5126252;28;19927;-56
2022/05/19 04:26:44;;;;;;;;;;;20.10;52.90;;;;;;5125549;28;19992;-53
2022/05/19 04:29:09;;;;;;;;;;;20.00;52.20;;;;;;5122870;28;19923;-47
2022/05/19 04:31:35;;;;;;;;;;;19.60;52.70;;;;;;5129102;28;19982;-46
2022/05/19 04:34:01;;;;;;;;;;;20.30;53.70;;;;;;5124004;28;20359;-46
2022/05/19 04:36:27;;;;;;;;;;;21.20;53.70;;;;;;5123881;28;19984;-49
2022/05/19 04:38:53;;;;;;;;;;;21.50;51.40;;;;;;5129488;28;19923;-49
2022/05/19 04:41:19;;;;;;;;;;;20.40;51.90;;;;;;5123991;28;19993;-50
2022/05/19 04:43:45;;;;;;;;;;;20.00;51.70;;;;;;5104845;28;20569;-53
2022/05/19 04:46:10;;;;;;;;;;;19.80;51.40;;;;;;5126731;28;19934;-47
2022/05/19 04:48:36;;;;;;;;;;;19.80;51.00;;;;;;5104588;28;19932;-50
2022/05/19 04:51:02;;;;;;;;;;;20.50;52.90;;;;;;5129123;28;20015;-48
2022/05/19 04:53:28;;;;;;;;;;;21.40;51.80;;;;;;5123670;28;20003;-47
2022/05/19 04:55:54;;;;;;;;;;;20.90;50.70;;;;;;5105308;28;19930;-46
2022/05/19 04:58:20;;;;;;;;;;;20.20;51.30;;;;;;5129109;28;19924;-46
2022/05/19 05:00:46;;;;;;;;;;;20.00;50.80;;;;;;5123807;28;19927;-47
2022/05/19 05:03:12;;;;;;;;;;;19.70;50.90;;;;;;5121633;28;20493;-47
2022/05/19 05:05:38;;;;;;;;;;;20.30;52.70;;;;;;5127297;28;19927;-47
2022/05/19 05:08:04;;;;;;;;;;;21.30;52.00;;;;;;5123092;28;19934;-49
2022/05/19 05:10:30;;;;;;;;;;;21.50;50.10;;;;;;5128957;28;20286;-48
2022/05/19 05:12:55;;;;;;;;;;;20.30;51.30;;;;;;5123430;28;19930;-48
2022/05/19 05:15:21;;;;;;;;;;;19.70;52.10;;;;;;5123287;28;19930;-46
2022/05/19 05:17:47;;;;;;;;;;;19.70;51.50;;;;;;5129150;28;19930;-45
2022/05/19 05:20:13;;;;;;;;;;;19.80;52.20;;;;;;5123257;28;19931;-47
2022/05/19 05:22:39;;;;;;;;;;;20.80;53.10;;;;;;5120636;28;19923;-45
2022/05/19 05:25:06;;;;;;;;;;;21.60;51.30;;;;;;5127806;28;19946;-48
2022/05/19 05:27:32;;;;;;;;;;;20.60;51.70;;;;;;5122949;28;19924;-46
2022/05/19 05:29:57;;;;;;;;;;;19.90;51.70;;;;;;5128488;28;20427;-49
2022/05/19 05:32:23;;;;;;;;;;;19.80;51.60;;;;;;5122982;27;19924;-46
2022/05/19 05:34:49;;;;;;;;;;;19.90;50.90;;;;;;5122993;28;19989;-49
2022/05/19 05:37:15;;;;;;;;;;;19.80;51.20;;;;;;5128427;28;19945;-46
2022/05/19 05:39:41;;;;;;;;;;;20.80;51.80;;;;;;5121229;28;19930;-47
2022/05/19 05:42:07;;;;;;;;;;;21.60;50.30;;;;;;5121341;28;20185;-49
2022/05/19 05:44:32;;;;;;;;;;;20.80;50.50;;;;;;5092459;28;20228;-47
2022/05/19 05:46:58;;;;;;;;;;;20.10;51.00;;;;;;5122585;28;20027;-47
2022/05/19 05:49:24;;;;;;;;;;;19.70;51.50;;;;;;5107938;28;20442;-56
2022/05/19 05:51:50;;;;;;;;;;;19.80;50.80;;;;;;5125147;28;19927;-45
2022/05/19 05:54:16;;;;;;;;;;;20.80;51.50;;;;;;5122663;28;19931;-48
2022/05/19 05:56:41;;;;;;;;;;;21.70;49.90;;;;;;5108637;28;20016;-51
2022/05/19 05:59:07;;;;;;;;;;;20.70;50.60;;;;;;5120214;28;20190;-46
2022/05/19 06:01:33;;;;;;;;;;;20.20;50.90;;;;;;5121705;28;20010;-46
2022/05/19 06:03:59;;;;;;;;;;;20.00;50.90;;;;;;5127639;28;20295;-47
2022/05/19 06:06:25;;;;;;;;;;;19.90;50.90;;;;;;5122367;28;19924;-46
2022/05/19 06:08:51;;;;;;;;;;;19.80;51.10;;;;;;5123523;28;20039;-53
2022/05/19 06:11:17;;;;;;;;;;;19.70;51.10;;;;;;5108778;28;19939;-45
2022/05/19 06:13:43;;;;;;;;;;;20.00;51.80;;;;;;5122287;28;19927;-46
2022/05/19 06:16:08;;;;;;;;;;;21.20;51.50;;;;;;5126339;28;19927;-47
2022/05/19 06:18:34;;;;;;;;;;;21.80;50.10;;;;;;5120525;28;19928;-46
2022/05/19 06:21:00;;;;;;;;;;;20.50;51.70;;;;;;5121588;28;19924;-45
2022/05/19 06:23:26;;;;;;;;;;;20.20;51.50;;;;;;5127711;28;19957;-50
2022/05/19 06:25:51;;;;;;;;;;;19.90;51.40;;;;;;5122319;28;20409;-45
2022/05/19 06:28:17;;;;;;;;;;;19.90;51.30;;;;;;5121850;28;19924;-46
2022/05/19 06:30:44;;;;;;;;;;;19.80;51.30;;;;;;5127672;28;20044;-46
2022/05/19 06:33:12;;;;;;;;;;;19.90;52.10;;;;;;5118574;28;19923;-45
2022/05/19 06:35:38;;;;;;;;;;;21.00;52.40;;;;;;5124883;28;19927;-49
2022/05/19 06:38:04;;;;;;;;;;;21.80;51.10;;;;;;5120958;28;20363;-48
2022/05/19 06:40:30;;;;;;;;;;;20.80;51.70;;;;;;5121662;28;19923;-46
2022/05/19 06:42:56;;;;;;;;;;;20.00;52.40;;;;;;5127188;28;20394;-46
2022/05/19 06:45:24;;;;;;;;;;;20.00;51.80;;;;;;5120838;27;19976;-45
2022/05/19 06:47:50;;;;;;;;;;;19.90;51.60;;;;;;5103399;28;19931;-46
2022/05/19 06:50:16;;;;;;;;;;;19.80;51.80;;;;;;5127358;28;20293;-47
2022/05/19 06:52:51;;;;;;;;;;;19.80;52.00;;;;;;5100210;28;19930;-47
2022/05/19 06:55:18;;;;;;;;;;;19.70;52.10;;;;;;5121086;28;20026;-53
2022/05/19 06:57:44;;;;;;;;;;;20.00;51.60;;;;;;5125777;28;20389;-47
2022/05/19 07:00:11;;;;;;;;;;;20.00;51.70;;;;;;5121605;28;19977;-46
2022/05/19 07:02:38;;;;;;;;;;;20.00;53.10;;;;;;5127065;28;19937;-46
2022/05/19 07:05:04;;;;;;;;;;;21.00;54.20;;;;;;5102908;28;19933;-46
2022/05/19 07:07:30;;;;;;;;;;;21.60;53.70;;;;;;5121415;28;20302;-46
2022/05/19 07:09:56;;;;;;;;;;;20.70;53.40;;;;;;5108718;28;20010;-45
2022/05/19 07:12:22;;;;;;;;;;;19.90;53.80;;;;;;5118863;28;20026;-45
2022/05/19 07:14:49;;;;;;;;;;;19.80;53.40;;;;;;5120702;28;20030;-46
2022/05/19 07:17:14;;;;;;;;;;;19.70;53.10;;;;;;5126790;28;19923;-44
2022/05/19 07:22:24;;;;;;;;;;;19.70;52.40;;;;;;5122283;28;19931;-54
2022/05/19 07:24:51;;;;;;;;;;;19.80;52.20;;;;;;5125831;28;19934;-44
2022/05/19 07:27:16;;;;;;;;;;;20.00;51.70;;;;;;5121330;28;19930;-44
2022/05/19 07:29:42;;;;;;;;;;;20.00;51.50;;;;;;5106343;28;19924;-47
2022/05/19 07:32:08;;;;;;;;;;;20.10;51.60;;;;;;5119363;28;19938;-47
2022/05/19 07:34:34;;;;;;;;;;;20.30;53.50;;;;;;5103637;28;20382;-45
2022/05/19 07:37:00;;;;;;;;;;;21.30;54.30;;;;;;5126487;28;20383;-44
2022/05/19 07:39:26;;;;;;;;;;;21.80;52.90;;;;;;5102583;28;19976;-45
2022/05/19 07:41:55;;;;;;;;;;;20.50;53.80;;;;;;5102825;28;20165;-46
2022/05/19 07:44:21;;;;;;;;;;;20.10;53.70;;;;;;5126365;28;19934;-45
2022/05/19 07:46:48;;;;;;;;;;;19.80;53.50;;;;;;5120694;28;19923;-45
2022/05/19 07:49:14;;;;;;;;;;;20.10;52.70;;;;;;5105143;28;19923;-48
2022/05/19 07:51:40;;;;;;;;;;;19.80;53.10;;;;;;5119781;28;20332;-48
2022/05/19 07:54:07;;;;;;;;;;;19.70;53.20;;;;;;5120423;28;19951;-45
2022/05/19 07:56:33;;;;;;;;;;;20.10;52.10;;;;;;5126156;27;20032;-48
2022/05/19 07:59:00;;;;;;;;;;;20.00;52.30;;;;;;5120415;28;20443;-45
2022/05/19 08:01:26;;;;;;;;;;;20.10;52.40;;;;;;5120689;28;19923;-46
2022/05/19 08:03:52;;;;;;;;;;;20.10;52.10;;;;;;5126045;28;19923;-48
2022/05/19 08:06:17;;;;;;;;;;;20.00;52.60;;;;;;5119145;28;19979;-45
2022/05/19 08:08:44;;;;;;;;;;;19.80;52.90;;;;;;5123185;28;19971;-53
2022/05/19 08:11:09;;;;;;;;;;;20.80;55.50;;;;;;5103412;28;19934;-46
2022/05/19 08:16:21;;;;;;;;;;;21.40;54.70;;;;;;5125796;28;19927;-45
2022/05/19 08:18:46;;;;;;;;;;;20.50;54.70;;;;;;5084976;28;19924;-44
2022/05/19 08:21:12;;;;;;;;;;;20.00;55.40;;;;;;5120356;28;19979;-47
2022/05/19 08:23:39;;;;;;;;;;;20.20;54.40;;;;;;5125696;28;19927;-46
2022/05/19 08:26:08;;;;;;;;;;;19.90;54.50;;;;;;5098982;28;19924;-45
2022/05/19 08:28:34;;;;;;;;;;;20.00;54.00;;;;;;5119062;28;19924;-46
2022/05/19 08:31:01;;;;;;;;;;;20.00;53.80;;;;;;5106319;28;20376;-44
2022/05/19 08:33:27;;;;;;;;;;;19.80;54.30;;;;;;5120117;28;20860;-44
2022/05/19 08:35:53;;;;;;;;;;;19.90;53.90;;;;;;5102797;28;20392;-51
2022/05/19 08:38:19;;;;;;;;;;;20.00;53.80;;;;;;5104742;28;20379;-47
2022/05/19 08:40:47;;;;;;;;;;;20.20;53.20;;;;;;5101729;28;19931;-44
2022/05/19 08:43:14;;;;;;;;;;;20.20;53.20;;;;;;5105575;28;19923;-45
2022/05/19 08:45:41;;;;;;;;;;;20.20;53.30;;;;;;5118353;28;20018;-45
2022/05/19 08:48:10;;;;;;;;;;;20.10;53.80;;;;;;5119505;28;20021;-45
2022/05/19 08:50:39;;;;;;;;;;;20.00;54.00;;;;;;5125240;28;19923;-45
2022/05/19 08:53:06;;;;;;;;;;;20.10;53.70;;;;;;5119925;28;19924;-46
2022/05/19 08:55:32;;;;;;;;;;;20.00;54.00;;;;;;5119867;28;20021;-47
2022/05/19 08:58:13;;;;;;;;;;;20.80;56.80;;;;;;5125351;28;20019;-51
2022/05/19 09:00:41;;;;;;;;;;;21.50;57.70;;;;;;5119600;28;19924;-46
2022/05/19 09:03:09;;;;;;;;;;;21.10;56.70;;;;;;5098782;28;19930;-48
2022/05/19 09:05:54;;;;;;;;;;;20.50;56.20;;;;;;5124559;28;19924;-44
2022/05/19 09:08:25;;;;;;;;;;;20.20;55.50;;;;;;5121326;27;20375;-44
2022/05/19 09:11:10;;;;;;;;;;;20.20;54.40;;;;;;5123229;28;19923;-47
2022/05/19 09:13:37;;;;;;;;;;;20.00;54.60;;;;;;5128629;28;20014;-46
2022/05/19 09:16:04;;;;;;;;;;;20.00;54.20;;;;;;5123174;28;19962;-43
2022/05/19 09:18:34;;;;;;;;;;;19.90;54.30;;;;;;5105428;28;19935;-51
2022/05/19 09:21:02;;;;;;;;;;;20.00;54.20;;;;;;5106362;28;19969;-45
2022/05/19 09:23:28;;;;;;;;;;;19.90;54.40;;;;;;5122123;28;20454;-48
2022/05/19 09:25:57;;;;;;;;;;;20.10;53.80;;;;;;5109798;28;19923;-43
2022/05/19 09:28:23;;;;;;;;;;;20.20;53.70;;;;;;5123087;28;19930;-50
2022/05/19 09:30:54;;;;;;;;;;;20.20;53.50;;;;;;5104685;28;20370;-44
2022/05/19 09:33:20;;;;;;;;;;;19.90;54.50;;;;;;5128470;28;19972;-46
2022/05/19 09:35:50;;;;;;;;;;;20.10;54.10;;;;;;5122937;28;19923;-45
2022/05/19 09:38:32;;;;;;;;;;;20.70;57.70;;;;;;5103387;28;19927;-45
2022/05/19 09:41:03;;;;;;;;;;;21.50;58.80;;;;;;5126657;28;19924;-48
2022/05/19 09:43:32;;;;;;;;;;;21.30;57.60;;;;;;5104242;28;20332;-45
2022/05/19 09:46:04;;;;;;;;;;;20.60;57.30;;;;;;5122842;28;20325;-45
2022/05/19 09:48:33;;;;;;;;;;;20.30;56.40;;;;;;5128256;28;19967;-46
2022/05/19 09:51:03;;;;;;;;;;;20.20;55.90;;;;;;5101393;28;19986;-47
2022/05/19 09:53:29;;;;;;;;;;;20.10;55.80;;;;;;5122944;28;20022;-44
2022/05/19 09:55:55;;;;;;;;;;;20.20;55.30;;;;;;5127756;28;19923;-44
2022/05/19 09:58:21;;;;;;;;;;;20.10;55.20;;;;;;5120228;28;19975;-44
2022/05/19 10:00:50;;;;;;;;;;;20.10;54.80;;;;;;5127274;28;19923;-44
2022/05/19 10:03:24;;;;;;;;;;;20.10;54.90;;;;;;5122075;28;20018;-45
2022/05/19 10:05:51;;;;;;;;;;;20.10;54.80;;;;;;5122210;28;20000;-44
2022/05/19 10:08:17;;;;;;;;;;;20.20;54.70;;;;;;5109293;28;19930;-43
2022/05/19 10:10:47;;;;;;;;;;;20.10;54.90;;;;;;5122115;28;19924;-43
2022/05/19 10:13:14;;;;;;;;;;;20.40;54.20;;;;;;5122169;28;20022;-43
2022/05/19 10:15:42;;;;;;;;;;;20.30;54.30;;;;;;5125089;28;19924;-45
2022/05/19 10:18:15;;;;;;;;;;;20.30;54.40;;;;;;5120496;28;20021;-45
2022/05/19 10:20:43;;;;;;;;;;;20.30;54.40;;;;;;5102124;28;22267;-45
2022/05/19 10:23:15;;;;;;;;;;;20.30;54.60;;;;;;5108919;28;19930;-44
2022/05/19 10:26:00;;;;;;;;;;;20.20;55.00;;;;;;5121885;28;20333;-46
2022/05/19 10:31:53;;;;;;;;;;;20.30;54.90;;;;;;5127239;28;20311;-43
2022/05/19 10:34:23;;;;;;;;;;;20.30;54.90;;;;;;5101196;28;19924;-46
2022/05/19 10:36:57;;;;;;;;;;;20.30;54.90;;;;;;5083181;28;20018;-48
2022/05/19 10:39:35;;;;;;;;;;;20.20;55.30;;;;;;5126890;28;19924;-44
2022/05/19 10:42:25;;;;;;;;;;;20.30;55.00;;;;;;5120846;28;21307;-44
2022/05/19 10:45:10;;;;;;;;;;;20.30;55.10;;;;;;5071268;28;20006;-45
2022/05/19 10:47:46;;;;;;;;;;;20.30;55.20;;;;;;5121873;28;19930;-51
2022/05/19 10:50:12;;;;;;;;;;;20.30;55.10;;;;;;5127712;28;19945;-47
2022/05/19 10:52:58;;;;;;;;;;;20.20;55.30;;;;;;5119544;28;19924;-46
2022/05/19 10:55:28;;;;;;;;;;;20.20;55.20;;;;;;5120931;28;19972;-46
2022/05/19 10:57:58;;;;;;;;;;;21.00;59.00;;;;;;5126879;28;19944;-44
2022/05/19 11:00:33;;;;;;;;;;;21.60;59.80;;;;;;5103692;28;19924;-44
2022/05/19 11:03:19;;;;;;;;;;;21.30;58.00;;;;;;5105934;28;20027;-55
2022/05/19 11:06:03;;;;;;;;;;;20.80;56.00;;;;;;5126844;28;19927;-47
2022/05/19 11:08:37;;;;;;;;;;;20.50;54.70;;;;;;5121708;28;20019;-47
2022/05/19 11:11:20;;;;;;;;;;;20.30;53.90;;;;;;5101126;28;19923;-45
2022/05/19 11:13:48;;;;;;;;;;;20.30;53.30;;;;;;5126117;28;20398;-44
2022/05/19 11:16:30;;;;;;;;;;;20.00;53.30;;;;;;5121230;28;20383;-48
2022/05/19 11:19:09;;;;;;;;;;;20.50;57.10;;;;;;5121510;28;19976;-46
2022/05/19 11:21:41;;;;;;;;;;;21.30;59.50;;;;;;5108012;28;19923;-46
2022/05/19 11:24:26;;;;;;;;;;;21.80;59.10;;;;;;5121245;28;19977;-48
2022/05/19 11:27:04;;;;;;;;;;;21.00;57.30;;;;;;5102842;28;20299;-52
2022/05/19 11:29:35;;;;;;;;;;;20.50;55.70;;;;;;5103241;28;20020;-46
2022/05/19 11:32:20;;;;;;;;;;;20.50;54.20;;;;;;5119863;27;20493;-45
2022/05/19 11:34:52;;;;;;;;;;;20.30;53.50;;;;;;5120852;28;19959;-47
2022/05/19 11:37:32;;;;;;;;;;;20.20;53.10;;;;;;5126468;28;20030;-44
2022/05/19 11:39:58;;;;;;;;;;;20.10;52.70;;;;;;5100799;28;19934;-43
2022/05/19 11:42:34;;;;;;;;;;;20.10;52.60;;;;;;5121228;28;19951;-48
2022/05/19 11:45:02;;;;;;;;;;;19.90;52.80;;;;;;5108219;28;19923;-45
2022/05/19 11:55:47;;;;;;;;;;;21.80;59.00;;;;;;5125285;28;20286;-45
2022/05/19 11:58:20;;;;;;;;;;;21.40;57.20;;;;;;5120829;28;19962;-53
2022/05/19 12:01:00;;;;;;;;;;;20.80;56.10;;;;;;5125698;28;20298;-45
2022/05/19 12:03:45;;;;;;;;;;;20.70;54.20;;;;;;5123014;27;19974;-47
2022/05/19 12:06:16;;;;;;;;;;;20.40;53.80;;;;;;5117964;28;20459;-47
2022/05/19 12:08:50;;;;;;;;;;;20.30;53.00;;;;;;5124350;28;20025;-50
2022/05/19 12:11:16;;;;;;;;;;;20.00;53.50;;;;;;5124740;28;19923;-44
2022/05/19 12:13:45;;;;;;;;;;;20.10;53.00;;;;;;5120615;28;19957;-47
2022/05/19 12:16:13;;;;;;;;;;;19.90;52.80;;;;;;5125818;28;19928;-44
2022/05/19 12:19:00;;;;;;;;;;;20.00;52.30;;;;;;5120588;28;20439;-46
2022/05/19 12:21:42;;;;;;;;;;;20.20;56.10;;;;;;5101888;28;19934;-50
2022/05/19 12:24:10;;;;;;;;;;;21.30;58.30;;;;;;5105794;28;20078;-47
2022/05/19 12:26:37;;;;;;;;;;;21.90;58.40;;;;;;5118812;28;20535;-46
2022/05/19 12:29:04;;;;;;;;;;;21.30;56.90;;;;;;5119941;28;19923;-45
2022/05/19 12:34:22;;;;;;;;;;;20.70;54.40;;;;;;5120126;28;19934;-49
2022/05/19 12:37:07;;;;;;;;;;;20.30;54.00;;;;;;5101836;28;19934;-48
2022/05/19 12:39:43;;;;;;;;;;;20.30;53.30;;;;;;5125764;28;19932;-46
2022/05/19 12:42:18;;;;;;;;;;;20.10;53.00;;;;;;5120779;27;19927;-47
2022/05/19 12:44:50;;;;;;;;;;;20.20;52.70;;;;;;5121975;28;19927;-46
2022/05/19 12:47:16;;;;;;;;;;;20.00;52.90;;;;;;5110854;28;19929;-44
2022/05/19 12:50:03;;;;;;;;;;;20.10;52.40;;;;;;5123908;28;20264;-46
2022/05/19 12:52:48;;;;;;;;;;;20.30;56.60;;;;;;5122940;27;19931;-46
2022/05/19 12:55:26;;;;;;;;;;;21.30;58.10;;;;;;5126740;28;20022;-56
2022/05/19 12:57:56;;;;;;;;;;;21.90;58.20;;;;;;5129120;28;19923;-46
2022/05/19 13:00:35;;;;;;;;;;;21.00;56.90;;;;;;5102348;28;19928;-45
2022/05/19 13:03:03;;;;;;;;;;;20.80;55.30;;;;;;5123771;28;20382;-53
2022/05/19 13:05:39;;;;;;;;;;;20.50;54.60;;;;;;5127134;28;19936;-46
2022/05/19 13:08:12;;;;;;;;;;;20.40;53.60;;;;;;5123535;28;19923;-48
2022/05/19 13:10:39;;;;;;;;;;;20.40;53.00;;;;;;5128722;28;20010;-54
2022/05/19 13:13:07;;;;;;;;;;;20.20;52.90;;;;;;5124171;28;20027;-45
2022/05/19 13:15:34;;;;;;;;;;;20.10;52.90;;;;;;5104842;28;20442;-46
2022/05/19 13:18:04;;;;;;;;;;;20.10;52.50;;;;;;5110123;28;19930;-43
2022/05/19 13:20:32;;;;;;;;;;;20.10;52.30;;;;;;5120839;28;19931;-47
2022/05/19 13:23:02;;;;;;;;;;;20.40;56.50;;;;;;5122333;28;20489;-47
2022/05/19 13:25:28;;;;;;;;;;;21.30;58.20;;;;;;5128202;28;19923;-44
2022/05/19 13:31:18;;;;;;;;;;;21.30;56.70;;;;;;5103607;28;20231;-47
2022/05/19 13:33:43;;;;;;;;;;;20.70;55.40;;;;;;5128296;28;19934;-44
2022/05/19 13:36:10;;;;;;;;;;;20.60;54.00;;;;;;5104363;28;20299;-45
2022/05/19 13:38:35;;;;;;;;;;;20.40;53.80;;;;;;5119955;28;20374;-47
2022/05/19 13:41:02;;;;;;;;;;;20.30;53.50;;;;;;5127379;28;19938;-48
2022/05/19 13:43:30;;;;;;;;;;;20.20;53.10;;;;;;5122439;28;19967;-44
2022/05/19 13:45:57;;;;;;;;;;;20.10;52.60;;;;;;5122957;28;19979;-47
2022/05/19 13:48:42;;;;;;;;;;;20.00;53.00;;;;;;5108009;28;20368;-46
2022/05/19 13:51:13;;;;;;;;;;;20.10;52.60;;;;;;5122623;28;19923;-45
2022/05/19 13:53:40;;;;;;;;;;;20.30;56.30;;;;;;5102159;28;20480;-45
2022/05/19 13:56:06;;;;;;;;;;;21.20;58.40;;;;;;5125613;28;19950;-46
2022/05/19 13:58:31;;;;;;;;;;;21.80;58.30;;;;;;5120903;28;19923;-45
2022/05/19 14:00:57;;;;;;;;;;;21.50;56.70;;;;;;5127194;28;19927;-54
2022/05/19 14:03:23;;;;;;;;;;;20.80;56.20;;;;;;5104333;28;19937;-47
2022/05/19 14:05:49;;;;;;;;;;;20.70;54.70;;;;;;5104177;28;20026;-45
2022/05/19 14:08:15;;;;;;;;;;;20.40;54.50;;;;;;5108274;28;19924;-47
2022/05/19 14:10:42;;;;;;;;;;;20.40;53.50;;;;;;5122558;28;20019;-45
2022/05/19 14:13:09;;;;;;;;;;;20.10;53.50;;;;;;5103628;28;19929;-44
2022/05/19 14:15:39;;;;;;;;;;;20.30;52.80;;;;;;5106841;28;20411;-45
2022/05/19 14:18:08;;;;;;;;;;;20.00;53.20;;;;;;5121662;28;19923;-47
2022/05/19 14:20:47;;;;;;;;;;;20.10;52.70;;;;;;5122122;28;20010;-47
2022/05/19 14:23:17;;;;;;;;;;;20.10;52.50;;;;;;5109119;28;20321;-49
2022/05/19 14:25:42;;;;;;;;;;;20.50;57.10;;;;;;5121694;28;19983;-48
2022/05/19 14:28:11;;;;;;;;;;;21.40;58.40;;;;;;5125776;28;19927;-58
2022/05/19 14:30:39;;;;;;;;;;;22.10;58.40;;;;;;5125620;28;19931;-45
2022/05/19 14:33:05;;;;;;;;;;;21.30;57.10;;;;;;5101611;28;20302;-46
2022/05/19 14:35:39;;;;;;;;;;;21.00;55.30;;;;;;5126149;28;19933;-44
2022/05/19 14:38:05;;;;;;;;;;;20.80;54.20;;;;;;5103242;28;20280;-46
2022/05/19 14:43:22;;;;;;;;;;;20.30;53.80;;;;;;5127411;28;19935;-45
2022/05/19 14:45:49;;;;;;;;;;;20.30;52.90;;;;;;5122179;28;19924;-45
2022/05/19 14:48:26;;;;;;;;;;;20.30;52.70;;;;;;5102319;28;19934;-45
2022/05/19 14:50:52;;;;;;;;;;;20.30;52.40;;;;;;5125712;28;19948;-46
2022/05/19 14:53:20;;;;;;;;;;;20.30;52.30;;;;;;5102104;28;19937;-46
2022/05/19 14:56:06;;;;;;;;;;;20.20;52.40;;;;;;5121343;28;19976;-45